createdAt,value
2023-03-15T00:07:26.749Z,3.40
2023-03-15T00:10:02.248Z,3.22
2023-03-15T00:12:35.378Z,3.22
2023-03-15T00:15:12.277Z,3.40
2023-03-15T00:17:47.407Z,3.35
2023-03-15T00:20:20.793Z,3.78
2023-03-15T00:22:59.579Z,3.60
2023-03-15T00:25:40.556Z,3.60
2023-03-15T00:29:31.760Z,3.67
2023-03-15T00:32:10.156Z,3.90
2023-03-15T00:34:42.610Z,4.00
2023-03-15T00:40:13.907Z,4.03
2023-03-15T00:42:42.180Z,4.13
2023-03-15T00:45:10.916Z,4.53
2023-03-15T00:47:40.531Z,4.43
2023-03-15T00:50:09.185Z,4.38
2023-03-15T00:52:43.473Z,4.50
2023-03-15T00:55:19.921Z,5.10
2023-03-15T00:57:52.213Z,4.30
2023-03-15T01:00:25.408Z,4.47
2023-03-15T01:02:59.324Z,4.60
2023-03-15T01:05:28.526Z,3.95
2023-03-15T01:08:07.799Z,4.88
2023-03-15T01:10:46.362Z,4.57
2023-03-15T01:13:18.009Z,5.22
2023-03-15T01:18:38.287Z,4.60
2023-03-15T01:21:09.888Z,4.80
2023-03-15T01:23:44.206Z,4.28
2023-03-15T01:26:42.001Z,4.68
2023-03-15T01:29:14.503Z,4.90
2023-03-15T01:31:58.379Z,5.32
2023-03-15T01:34:35.777Z,4.35
2023-03-15T01:37:10.498Z,4.70
2023-03-15T01:39:44.173Z,4.35
2023-03-15T01:42:23.713Z,4.50
2023-03-15T01:45:05.606Z,4.38
2023-03-15T01:50:24.113Z,4.38
2023-03-15T01:53:00.305Z,4.53
2023-03-15T02:01:23.143Z,4.72
2023-03-15T02:03:59.841Z,4.68
2023-03-15T02:06:40.148Z,4.95
2023-03-15T02:09:15.312Z,5.07
2023-03-15T02:14:44.942Z,4.43
2023-03-15T02:17:13.968Z,4.72
2023-03-15T02:19:59.607Z,4.95
2023-03-15T02:22:47.586Z,4.63
2023-03-15T02:25:41.294Z,5.20
2023-03-15T02:28:27.153Z,5.30
2023-03-15T02:31:05.715Z,4.35
2023-03-15T02:33:53.636Z,4.53
2023-03-15T02:36:31.594Z,4.35
2023-03-15T02:39:19.952Z,4.43
2023-03-15T02:44:46.962Z,4.60
2023-03-15T02:47:28.206Z,4.80
2023-03-15T02:50:25.859Z,4.88
2023-03-15T02:53:30.799Z,4.90
2023-03-15T02:56:23.931Z,5.47
2023-03-15T02:59:00.129Z,5.82
2023-03-15T03:01:39.295Z,6.05
2023-03-15T03:04:16.415Z,5.07
2023-03-15T03:09:39.976Z,5.60
2023-03-15T03:12:13.262Z,4.88
2023-03-15T03:14:43.776Z,5.35
2023-03-15T03:17:42.646Z,5.68
2023-03-15T03:20:18.709Z,4.97
2023-03-15T03:22:53.579Z,5.30
2023-03-15T03:25:27.538Z,4.90
2023-03-15T03:28:15.303Z,5.20
2023-03-15T03:30:54.137Z,5.97
2023-03-15T03:33:39.447Z,5.40
2023-03-15T03:39:03.352Z,5.75
2023-03-15T03:41:34.817Z,5.50
2023-03-15T03:44:05.426Z,5.25
2023-03-15T03:46:34.120Z,5.57
2023-03-15T03:49:19.323Z,5.53
2023-03-15T03:51:49.300Z,4.88
2023-03-15T03:54:31.596Z,5.38
2023-03-15T04:00:15.404Z,5.60
2023-03-15T04:02:46.784Z,5.65
2023-03-15T04:05:35.364Z,6.18
2023-03-15T04:08:11.423Z,5.53
2023-03-15T04:10:48.075Z,5.40
2023-03-15T04:13:16.310Z,5.38
2023-03-15T04:15:45.314Z,5.03
2023-03-15T04:18:23.027Z,5.88
2023-03-15T04:20:59.616Z,5.32
2023-03-15T04:23:29.223Z,5.85
2023-03-15T04:25:58.414Z,5.20
2023-03-15T04:28:33.473Z,5.72
2023-03-15T04:31:04.630Z,5.30
2023-03-15T04:33:45.213Z,5.30
2023-03-15T04:36:28.237Z,5.40
2023-03-15T04:39:13.110Z,5.30
2023-03-15T04:41:50.887Z,4.85
2023-03-15T04:44:26.618Z,5.05
2023-03-15T04:46:55.741Z,5.35
2023-03-15T04:49:34.799Z,5.70
2023-03-15T04:52:11.906Z,5.55
2023-03-15T04:55:11.558Z,5.35
2023-03-15T04:57:47.245Z,5.93
2023-03-15T05:00:17.315Z,6.30
2023-03-15T05:03:03.085Z,5.28
2023-03-15T05:05:47.042Z,5.47
2023-03-15T05:08:49.448Z,5.65
2023-03-15T05:11:28.046Z,5.28
2023-03-15T05:13:59.211Z,5.57
2023-03-15T05:16:38.537Z,6.32
2023-03-15T05:19:21.266Z,6.72
2023-03-15T05:22:02.799Z,7.43
2023-03-15T05:24:46.276Z,8.05
2023-03-15T05:27:17.917Z,7.15
2023-03-15T05:29:58.406Z,6.45
2023-03-15T05:32:45.138Z,6.72
2023-03-15T05:35:19.517Z,6.25
2023-03-15T05:37:49.634Z,8.18
2023-03-15T05:40:30.788Z,7.15
2023-03-15T05:43:34.856Z,6.38
2023-03-15T05:55:17.378Z,6.72
2023-03-15T05:58:30.858Z,6.32
2023-03-15T06:25:48.145Z,5.95
2023-03-15T06:31:07.303Z,8.82
2023-03-15T06:33:34.710Z,8.30
2023-03-15T06:36:02.104Z,7.03
2023-03-15T06:38:31.307Z,6.50
2023-03-15T06:41:01.298Z,6.10
2023-03-15T06:43:28.812Z,7.13
2023-03-15T06:45:58.675Z,6.22
2023-03-15T06:48:26.294Z,6.20
2023-03-15T06:50:53.542Z,7.22
2023-03-15T06:53:21.450Z,6.15
2023-03-15T06:55:50.804Z,7.82
2023-03-15T06:58:18.490Z,22.40
2023-03-15T07:00:46.067Z,14.05
2023-03-15T07:03:13.446Z,8.95
2023-03-15T07:05:40.433Z,7.40
2023-03-15T07:08:07.837Z,7.35
2023-03-15T07:10:34.932Z,7.30
2023-03-15T07:13:05.164Z,7.03
2023-03-15T07:15:32.269Z,6.93
2023-03-15T07:17:59.501Z,6.28
2023-03-15T07:20:26.660Z,6.63
2023-03-15T07:22:54.049Z,7.65
2023-03-15T07:25:24.098Z,7.38
2023-03-15T07:27:54.017Z,7.65
2023-03-15T07:30:22.639Z,7.47
2023-03-15T07:32:50.075Z,7.55
2023-03-15T07:35:18.208Z,6.82
2023-03-15T07:37:46.352Z,7.30
2023-03-15T07:40:15.996Z,7.20
2023-03-15T07:42:43.915Z,6.32
2023-03-15T07:45:11.921Z,6.22
2023-03-15T07:47:41.023Z,6.68
2023-03-15T07:50:09.525Z,6.63
2023-03-15T07:52:36.946Z,6.28
2023-03-15T07:55:10.038Z,6.63
2023-03-15T07:57:37.564Z,6.05
2023-03-15T08:00:06.224Z,7.30
2023-03-15T08:05:01.900Z,6.53
2023-03-15T08:07:29.427Z,6.40
2023-03-15T08:09:58.346Z,5.85
2023-03-15T08:12:25.850Z,6.18
2023-03-15T08:14:53.171Z,6.13
2023-03-15T08:17:20.927Z,6.63
2023-03-15T08:19:47.932Z,6.40
2023-03-15T08:22:16.675Z,6.82
2023-03-15T08:24:45.529Z,7.10
2023-03-15T08:29:39.900Z,6.03
2023-03-15T08:32:10.681Z,6.15
2023-03-15T08:34:52.151Z,5.43
2023-03-15T08:44:02.943Z,5.38
2023-03-15T08:46:48.549Z,5.70
2023-03-15T08:49:21.962Z,4.88
2023-03-15T08:52:00.674Z,5.35
2023-03-15T08:57:59.726Z,5.75
2023-03-15T09:07:28.115Z,5.38
2023-03-15T09:10:04.793Z,4.93
2023-03-15T09:12:43.539Z,4.72
2023-03-15T09:18:21.011Z,5.18
2023-03-15T09:21:00.059Z,4.90
2023-03-15T09:23:31.820Z,4.50
2023-03-15T09:29:26.712Z,4.70
2023-03-15T09:32:09.076Z,4.57
2023-03-15T09:35:14.587Z,4.82
2023-03-15T09:37:45.644Z,4.93
2023-03-15T09:40:56.678Z,4.40
2023-03-15T09:43:58.065Z,4.50
2023-03-15T09:47:02.511Z,4.50
2023-03-15T09:49:58.211Z,4.10
2023-03-15T09:52:50.141Z,3.92
2023-03-15T09:55:23.148Z,4.32
2023-03-15T09:57:59.800Z,4.00
2023-03-15T10:00:34.392Z,4.97
2023-03-15T10:03:08.464Z,4.22
2023-03-15T10:06:00.957Z,4.65
2023-03-15T10:08:38.632Z,4.20
2023-03-15T10:11:18.832Z,4.33
2023-03-15T10:14:15.029Z,5.22
2023-03-15T10:16:47.945Z,4.03
2023-03-15T10:19:32.857Z,3.78
2023-03-15T10:22:27.104Z,4.10
2023-03-15T10:25:20.013Z,4.03
2023-03-15T10:27:59.072Z,3.83
2023-03-15T10:30:29.615Z,4.20
2023-03-15T10:33:05.880Z,3.92
2023-03-15T10:35:33.687Z,4.53
2023-03-15T10:38:21.713Z,3.33
2023-03-15T10:40:54.008Z,3.92
2023-03-15T10:43:31.802Z,3.63
2023-03-15T10:46:09.705Z,3.70
2023-03-15T10:48:39.222Z,4.10
2023-03-15T10:51:17.105Z,3.88
2023-03-15T10:54:00.334Z,4.07
2023-03-15T10:56:38.094Z,4.05
2023-03-15T10:59:20.479Z,3.63
2023-03-15T11:01:55.541Z,3.80
2023-03-15T11:04:34.553Z,3.95
2023-03-15T11:07:06.304Z,4.10
2023-03-15T11:09:45.762Z,4.07
2023-03-15T11:12:25.066Z,4.05
2023-03-15T11:15:07.990Z,4.00
2023-03-15T11:17:44.123Z,3.75
2023-03-15T11:20:35.685Z,4.25
2023-03-15T11:23:19.451Z,3.70
2023-03-15T11:25:51.611Z,4.03
2023-03-15T11:28:22.778Z,3.97
2023-03-15T11:30:50.266Z,4.30
2023-03-15T11:33:34.097Z,4.55
2023-03-15T11:36:05.603Z,4.18
2023-03-15T11:38:35.226Z,4.40
2023-03-15T11:41:13.952Z,4.18
2023-03-15T11:43:52.393Z,4.03
2023-03-15T11:46:27.980Z,4.03
2023-03-15T11:49:01.350Z,3.80
2023-03-15T11:51:33.110Z,4.20
2023-03-15T11:54:07.224Z,4.43
2023-03-15T11:56:53.358Z,4.15
2023-03-15T11:59:25.512Z,4.45
2023-03-15T12:01:58.657Z,4.72
2023-03-15T12:04:44.130Z,4.38
2023-03-15T12:07:30.126Z,4.45
2023-03-15T12:09:58.559Z,4.65
2023-03-15T12:12:39.012Z,4.60
2023-03-15T12:15:44.147Z,4.38
2023-03-15T12:18:16.505Z,4.45
2023-03-15T12:20:50.895Z,5.20
2023-03-15T12:23:38.658Z,5.30
2023-03-15T12:26:10.570Z,4.85
2023-03-15T12:28:41.807Z,4.40
2023-03-15T12:31:13.370Z,4.85
2023-03-15T12:33:47.186Z,4.03
2023-03-15T12:36:27.726Z,3.97
2023-03-15T12:39:01.064Z,4.30
2023-03-15T12:41:38.676Z,4.25
2023-03-15T12:44:25.168Z,4.07
2023-03-15T12:46:59.972Z,3.97
2023-03-15T12:49:34.957Z,4.03
2023-03-15T12:52:04.850Z,4.10
2023-03-15T12:54:44.198Z,4.50
2023-03-15T13:00:33.321Z,4.32
2023-03-15T13:03:07.574Z,4.50
2023-03-15T13:06:04.218Z,4.20
2023-03-15T13:08:58.610Z,3.78
2023-03-15T13:11:34.738Z,3.67
2023-03-15T13:14:47.888Z,4.50
2023-03-15T13:18:01.410Z,4.30
2023-03-15T13:20:50.068Z,4.57
2023-03-15T13:23:52.781Z,4.30
2023-03-15T13:30:49.995Z,4.47
2023-03-15T13:43:40.530Z,5.38
2023-03-15T13:46:34.583Z,5.18
2023-03-15T13:49:31.883Z,5.78
2023-03-15T13:55:58.272Z,5.35
2023-03-15T14:05:51.493Z,4.80
2023-03-15T14:08:42.851Z,4.30
2023-03-15T14:11:58.234Z,4.40
2023-03-15T14:22:21.878Z,3.25
2023-03-15T14:25:25.863Z,3.08
2023-03-15T14:33:46.130Z,3.05
2023-03-15T14:39:48.168Z,3.22
2023-03-15T14:42:57.934Z,3.50
2023-03-15T14:46:02.975Z,2.60
2023-03-15T14:48:34.733Z,2.85
2023-03-15T14:51:36.892Z,2.75
2023-03-15T14:54:27.508Z,2.75
2023-03-15T14:57:09.041Z,2.72
2023-03-15T15:00:20.061Z,3.40
2023-03-15T15:02:59.693Z,2.88
2023-03-15T15:08:49.422Z,2.63
2023-03-15T15:14:41.465Z,3.50
2023-03-15T15:17:18.379Z,3.45
2023-03-15T15:20:06.706Z,3.28
2023-03-15T15:25:36.688Z,3.15
2023-03-15T15:28:35.905Z,2.80
2023-03-15T15:31:16.519Z,2.88
2023-03-15T15:34:01.829Z,3.05
2023-03-15T15:37:11.893Z,3.60
2023-03-15T15:43:01.436Z,3.17
2023-03-15T15:48:32.961Z,3.65
2023-03-15T15:51:31.106Z,3.58
2023-03-15T15:54:16.406Z,4.00
2023-03-15T16:02:35.273Z,4.13
2023-03-15T16:08:04.695Z,4.07
2023-03-15T16:11:09.652Z,3.95
2023-03-15T16:14:31.427Z,3.85
2023-03-15T16:17:05.032Z,3.25
2023-03-15T16:23:14.453Z,3.45
2023-03-15T16:26:11.387Z,3.70
2023-03-15T16:28:42.192Z,3.78
2023-03-15T16:31:22.597Z,3.10
2023-03-15T16:40:01.664Z,2.60
2023-03-15T16:42:47.855Z,3.05
2023-03-15T16:45:18.870Z,2.38
2023-03-15T16:47:54.626Z,3.08
2023-03-15T16:50:35.517Z,2.50
2023-03-15T16:53:13.612Z,2.85
2023-03-15T16:55:41.914Z,2.58
2023-03-15T16:58:17.628Z,2.53
2023-03-15T17:00:50.778Z,2.10
2023-03-15T17:03:20.200Z,1.98
2023-03-15T17:06:01.279Z,2.40
2023-03-15T17:08:29.821Z,2.90
2023-03-15T17:11:01.222Z,3.08
2023-03-15T17:16:06.845Z,2.38
2023-03-15T17:18:37.950Z,2.33
2023-03-15T17:24:25.312Z,2.75
2023-03-15T17:26:52.885Z,2.70
2023-03-15T17:29:19.943Z,2.60
2023-03-15T17:31:47.995Z,3.22
2023-03-15T17:34:15.367Z,2.70
2023-03-15T17:36:43.291Z,2.63
2023-03-15T17:39:14.466Z,2.55
2023-03-15T17:41:46.998Z,2.53
2023-03-15T17:44:14.495Z,5.47
2023-03-15T17:46:42.924Z,2.90
2023-03-15T17:49:13.370Z,2.72
2023-03-15T17:51:40.887Z,3.17
2023-03-15T17:54:14.194Z,2.72
2023-03-15T17:56:43.651Z,2.83
2023-03-15T17:59:14.187Z,2.85
2023-03-15T18:01:45.681Z,2.60
2023-03-15T18:04:13.882Z,2.85
2023-03-15T18:06:41.981Z,2.58
2023-03-15T18:09:10.679Z,1.98
2023-03-15T18:11:42.738Z,1.88
2023-03-15T18:14:14.595Z,2.38
2023-03-15T18:16:42.670Z,2.70
2023-03-15T18:19:10.418Z,2.42
2023-03-15T18:21:37.941Z,2.78
2023-03-15T18:24:05.678Z,2.67
2023-03-15T18:26:33.237Z,4.15
2023-03-15T18:29:01.097Z,3.08
2023-03-15T18:31:30.065Z,4.18
2023-03-15T18:33:57.201Z,4.38
2023-03-15T18:36:24.999Z,4.97
2023-03-15T18:38:52.651Z,8.50
2023-03-15T18:41:21.813Z,4.65
2023-03-15T18:43:50.253Z,3.63
2023-03-15T18:46:18.251Z,4.63
2023-03-15T18:48:47.635Z,3.92
2023-03-15T18:51:15.537Z,4.03
2023-03-15T18:53:44.141Z,3.63
2023-03-15T18:56:17.586Z,3.72
2023-03-15T18:58:45.296Z,2.97
2023-03-15T19:01:12.695Z,3.75
2023-03-15T19:03:40.348Z,4.38
2023-03-15T19:06:11.746Z,2.42
2023-03-15T19:08:39.138Z,1.77
2023-03-15T19:11:08.085Z,2.65
2023-03-15T19:13:37.363Z,3.80
2023-03-15T19:16:05.011Z,3.33
2023-03-15T19:18:34.956Z,3.47
2023-03-15T19:21:02.799Z,2.80
2023-03-15T19:23:32.057Z,2.35
2023-03-15T19:25:59.456Z,1.85
2023-03-15T19:28:26.588Z,1.70
2023-03-15T19:30:54.104Z,1.92
2023-03-15T19:33:21.233Z,2.08
2023-03-15T19:38:20.100Z,1.80
2023-03-15T19:40:55.248Z,1.67
2023-03-15T19:43:22.819Z,2.63
2023-03-15T19:45:50.246Z,1.63
2023-03-15T19:48:19.169Z,2.45
2023-03-15T19:50:50.218Z,2.00
2023-03-15T19:53:18.362Z,2.72
2023-03-15T19:55:47.015Z,2.40
2023-03-15T19:58:15.593Z,2.05
2023-03-15T20:00:43.289Z,2.10
2023-03-15T20:03:12.630Z,2.47
2023-03-15T20:05:40.056Z,2.80
2023-03-15T20:08:08.427Z,2.10
2023-03-15T20:10:36.701Z,1.88
2023-03-15T20:13:03.969Z,2.20
2023-03-15T20:15:32.824Z,2.63
2023-03-15T20:17:59.959Z,2.88
2023-03-15T20:20:27.561Z,2.05
2023-03-15T20:22:54.666Z,1.70
2023-03-15T20:25:22.187Z,2.40
2023-03-15T20:27:49.309Z,1.45
2023-03-15T20:30:17.737Z,1.80
2023-03-15T20:32:46.295Z,1.80
2023-03-15T20:35:13.841Z,1.90
2023-03-15T20:37:42.305Z,1.83
2023-03-15T20:40:12.634Z,2.33
2023-03-15T20:42:40.029Z,1.75
2023-03-15T20:45:09.690Z,1.90
2023-03-15T20:47:38.195Z,1.75
2023-03-15T20:50:10.313Z,1.80
2023-03-15T20:52:37.505Z,1.88
2023-03-15T20:55:07.903Z,1.80
2023-03-15T20:57:38.942Z,2.17
2023-03-15T21:00:12.599Z,2.22
2023-03-15T21:02:40.410Z,1.60
2023-03-15T21:05:13.004Z,2.33
2023-03-15T21:07:41.365Z,1.48
2023-03-15T21:10:10.289Z,2.10
2023-03-15T21:12:37.717Z,1.40
2023-03-15T21:15:06.227Z,1.80
2023-03-15T21:17:33.463Z,1.20
2023-03-15T21:20:01.058Z,2.15
2023-03-15T21:22:29.624Z,1.55
2023-03-15T21:24:57.148Z,1.77
2023-03-15T21:27:26.306Z,2.38
2023-03-15T21:29:54.013Z,1.67
2023-03-15T21:32:21.622Z,1.88
2023-03-15T21:34:48.932Z,1.67
2023-03-15T21:37:16.155Z,1.88
2023-03-15T21:39:44.898Z,2.10
2023-03-15T21:42:12.037Z,1.70
2023-03-15T21:44:39.626Z,1.77
2023-03-15T21:47:06.970Z,1.80
2023-03-15T21:49:34.433Z,1.80
2023-03-15T21:52:02.513Z,1.65
2023-03-15T21:54:29.936Z,2.08
2023-03-15T21:56:58.454Z,1.58
2023-03-15T21:59:28.759Z,1.67
2023-03-15T22:01:56.210Z,1.48
2023-03-15T22:04:25.242Z,1.77
2023-03-15T22:06:53.023Z,1.95
2023-03-15T22:09:21.374Z,1.92
2023-03-15T22:11:49.239Z,1.70
2023-03-15T22:14:18.697Z,2.10
2023-03-15T22:16:45.761Z,2.00
2023-03-15T22:19:14.486Z,1.55
2023-03-15T22:21:42.300Z,2.55
2023-03-15T22:24:09.885Z,1.80
2023-03-15T22:26:37.321Z,2.00
2023-03-15T22:29:04.709Z,1.55
2023-03-15T22:31:33.474Z,1.80
2023-03-15T22:36:33.828Z,1.40
2023-03-15T22:39:01.510Z,1.73
2023-03-15T22:41:28.737Z,1.58
2023-03-15T22:43:56.241Z,2.30
2023-03-15T22:46:23.496Z,2.17
2023-03-15T22:48:52.526Z,2.00
2023-03-15T22:51:19.571Z,3.38
2023-03-15T22:53:47.651Z,2.58
2023-03-15T22:56:14.668Z,2.30
2023-03-15T22:58:41.994Z,1.85
2023-03-15T23:01:10.082Z,2.20
2023-03-15T23:03:37.459Z,2.38
2023-03-15T23:06:06.340Z,2.60
2023-03-15T23:11:00.530Z,2.60
2023-03-15T23:13:27.939Z,1.90
2023-03-15T23:15:55.214Z,2.08
2023-03-15T23:18:22.621Z,1.88
2023-03-15T23:20:49.638Z,2.20
2023-03-15T23:23:18.490Z,2.70
2023-03-15T23:25:46.921Z,2.20
2023-03-15T23:28:17.406Z,1.98
2023-03-15T23:30:45.675Z,1.98
2023-03-15T23:33:13.513Z,1.88
2023-03-15T23:35:42.117Z,2.40
2023-03-15T23:38:09.661Z,1.73
2023-03-15T23:40:38.518Z,2.17
2023-03-15T23:45:34.117Z,2.60
2023-03-15T23:48:05.735Z,2.47
2023-03-15T23:50:32.781Z,2.10
2023-03-15T23:53:00.400Z,2.78
2023-03-15T23:55:27.475Z,2.45
2023-03-15T23:57:56.446Z,2.20
